Terminal Aerodrome Forecast
Issued by NWS Cleveland, OH

Home | Current Version | Previous Version | Graphics & Text | Print | Product List | Glossary On
Versions: 1 2 3 4 5 6 7 8 9 10 11 12 13 14
000
FTUS41 KCLE 192334
TAFMFD
TAF
KMFD 192334Z 2000/2024 30006KT P6SM FEW250
     FM200200 VRB03KT P6SM SKC
      TEMPO 2009/2012 4SM BR
     FM201400 18005KT P6SM FEW250=

USA.gov is the U.S. government's official web portal to all federal, state and local government web resources and services.